sensor_id;sensor_type;location;lat;lon;timestamp;P1;durP1;ratioP1;P2;durP2;ratioP2
63350;SDS011;74263;51.058;17.040;2024-01-30T00:01:23;17.83;;;6.85;;
63350;SDS011;74263;51.058;17.040;2024-01-30T00:06:25;16.35;;;7.15;;
63350;SDS011;74263;51.058;17.040;2024-01-30T00:11:26;12.43;;;6.40;;
63350;SDS011;74263;51.058;17.040;2024-01-30T00:16:28;16.92;;;7.57;;
63350;SDS011;74263;51.058;17.040;2024-01-30T00:21:30;12.30;;;6.97;;
63350;SDS011;74263;51.058;17.040;2024-01-30T00:26:32;13.15;;;6.78;;
63350;SDS011;74263;51.058;17.040;2024-01-30T00:31:34;21.65;;;6.90;;
63350;SDS011;74263;51.058;17.040;2024-01-30T00:36:40;19.13;;;6.90;;
63350;SDS011;74263;51.058;17.040;2024-01-30T00:41:42;13.18;;;7.32;;
63350;SDS011;74263;51.058;17.040;2024-01-30T00:46:44;17.50;;;8.15;;
63350;SDS011;74263;51.058;17.040;2024-01-30T00:51:46;15.10;;;8.03;;
63350;SDS011;74263;51.058;17.040;2024-01-30T00:56:48;13.97;;;7.60;;
63350;SDS011;74263;51.058;17.040;2024-01-30T01:01:50;14.33;;;8.57;;
63350;SDS011;74263;51.058;17.040;2024-01-30T01:06:52;22.17;;;9.20;;
63350;SDS011;74263;51.058;17.040;2024-01-30T01:11:54;17.20;;;7.75;;
63350;SDS011;74263;51.058;17.040;2024-01-30T01:16:55;18.55;;;9.27;;
63350;SDS011;74263;51.058;17.040;2024-01-30T01:21:57;16.38;;;7.88;;
63350;SDS011;74263;51.058;17.040;2024-01-30T01:26:59;18.70;;;9.57;;
63350;SDS011;74263;51.058;17.040;2024-01-30T01:32:01;22.90;;;9.77;;
63350;SDS011;74263;51.058;17.040;2024-01-30T01:37:03;22.60;;;10.60;;
63350;SDS011;74263;51.058;17.040;2024-01-30T01:42:04;23.47;;;11.23;;
63350;SDS011;74263;51.058;17.040;2024-01-30T01:47:06;21.23;;;10.00;;
63350;SDS011;74263;51.058;17.040;2024-01-30T01:52:08;19.85;;;9.27;;
63350;SDS011;74263;51.058;17.040;2024-01-30T01:57:10;17.90;;;8.80;;
63350;SDS011;74263;51.058;17.040;2024-01-30T02:02:12;20.48;;;10.52;;
63350;SDS011;74263;51.058;17.040;2024-01-30T02:07:14;19.17;;;10.70;;
63350;SDS011;74263;51.058;17.040;2024-01-30T02:12:16;24.33;;;10.80;;
63350;SDS011;74263;51.058;17.040;2024-01-30T02:17:18;26.73;;;10.23;;
63350;SDS011;74263;51.058;17.040;2024-01-30T02:22:20;22.25;;;10.38;;
63350;SDS011;74263;51.058;17.040;2024-01-30T02:27:22;22.85;;;10.35;;
63350;SDS011;74263;51.058;17.040;2024-01-30T02:32:23;20.85;;;10.40;;
63350;SDS011;74263;51.058;17.040;2024-01-30T02:37:25;29.35;;;12.35;;
63350;SDS011;74263;51.058;17.040;2024-01-30T02:42:27;23.00;;;11.63;;
63350;SDS011;74263;51.058;17.040;2024-01-30T02:47:29;25.70;;;10.57;;
63350;SDS011;74263;51.058;17.040;2024-01-30T02:52:31;22.73;;;10.15;;
63350;SDS011;74263;51.058;17.040;2024-01-30T02:57:32;23.03;;;11.77;;
63350;SDS011;74263;51.058;17.040;2024-01-30T03:02:34;23.38;;;11.23;;
63350;SDS011;74263;51.058;17.040;2024-01-30T03:07:36;31.30;;;12.73;;
63350;SDS011;74263;51.058;17.040;2024-01-30T03:12:38;24.57;;;11.77;;
63350;SDS011;74263;51.058;17.040;2024-01-30T03:17:40;25.63;;;12.50;;
63350;SDS011;74263;51.058;17.040;2024-01-30T03:22:42;23.73;;;10.80;;
63350;SDS011;74263;51.058;17.040;2024-01-30T03:27:44;27.38;;;12.25;;
63350;SDS011;74263;51.058;17.040;2024-01-30T03:32:45;25.75;;;12.40;;
63350;SDS011;74263;51.058;17.040;2024-01-30T03:37:47;29.77;;;11.63;;
63350;SDS011;74263;51.058;17.040;2024-01-30T03:42:49;20.05;;;9.45;;
63350;SDS011;74263;51.058;17.040;2024-01-30T03:47:50;26.42;;;12.23;;
63350;SDS011;74263;51.058;17.040;2024-01-30T03:52:52;25.20;;;12.80;;
63350;SDS011;74263;51.058;17.040;2024-01-30T03:57:54;27.55;;;11.32;;
63350;SDS011;74263;51.058;17.040;2024-01-30T04:03:05;27.23;;;12.67;;
63350;SDS011;74263;51.058;17.040;2024-01-30T04:08:07;33.10;;;13.85;;
63350;SDS011;74263;51.058;17.040;2024-01-30T04:13:09;34.17;;;13.20;;
63350;SDS011;74263;51.058;17.040;2024-01-30T04:18:13;23.58;;;11.65;;
63350;SDS011;74263;51.058;17.040;2024-01-30T04:23:15;33.97;;;13.88;;
63350;SDS011;74263;51.058;17.040;2024-01-30T04:28:16;26.08;;;13.10;;
63350;SDS011;74263;51.058;17.040;2024-01-30T04:33:18;29.55;;;13.48;;
63350;SDS011;74263;51.058;17.040;2024-01-30T04:38:20;27.75;;;11.95;;
63350;SDS011;74263;51.058;17.040;2024-01-30T04:43:21;36.37;;;14.07;;
63350;SDS011;74263;51.058;17.040;2024-01-30T04:48:24;29.70;;;12.27;;
63350;SDS011;74263;51.058;17.040;2024-01-30T04:53:26;25.40;;;11.63;;
63350;SDS011;74263;51.058;17.040;2024-01-30T04:58:27;21.67;;;11.15;;
63350;SDS011;74263;51.058;17.040;2024-01-30T05:03:32;29.50;;;13.38;;
63350;SDS011;74263;51.058;17.040;2024-01-30T05:08:37;25.60;;;12.23;;
63350;SDS011;74263;51.058;17.040;2024-01-30T05:13:41;26.35;;;10.75;;
63350;SDS011;74263;51.058;17.040;2024-01-30T05:18:43;30.03;;;12.20;;
63350;SDS011;74263;51.058;17.040;2024-01-30T05:23:45;37.03;;;14.57;;
63350;SDS011;74263;51.058;17.040;2024-01-30T05:28:53;35.17;;;15.65;;
63350;SDS011;74263;51.058;17.040;2024-01-30T05:33:58;33.65;;;14.98;;
63350;SDS011;74263;51.058;17.040;2024-01-30T05:39:00;38.97;;;15.47;;
63350;SDS011;74263;51.058;17.040;2024-01-30T05:44:02;32.43;;;13.73;;
63350;SDS011;74263;51.058;17.040;2024-01-30T05:49:04;31.60;;;13.23;;
63350;SDS011;74263;51.058;17.040;2024-01-30T05:54:05;28.93;;;12.93;;
63350;SDS011;74263;51.058;17.040;2024-01-30T05:59:07;28.13;;;11.88;;
63350;SDS011;74263;51.058;17.040;2024-01-30T06:04:09;26.83;;;10.98;;
63350;SDS011;74263;51.058;17.040;2024-01-30T06:09:11;18.07;;;8.63;;
63350;SDS011;74263;51.058;17.040;2024-01-30T06:14:12;21.40;;;9.43;;
63350;SDS011;74263;51.058;17.040;2024-01-30T06:19:14;19.53;;;9.47;;
63350;SDS011;74263;51.058;17.040;2024-01-30T06:24:16;19.20;;;8.97;;
63350;SDS011;74263;51.058;17.040;2024-01-30T06:29:17;19.80;;;8.57;;
63350;SDS011;74263;51.058;17.040;2024-01-30T06:34:21;19.98;;;9.82;;
63350;SDS011;74263;51.058;17.040;2024-01-30T06:39:23;15.20;;;8.27;;
63350;SDS011;74263;51.058;17.040;2024-01-30T06:44:25;18.10;;;9.17;;
63350;SDS011;74263;51.058;17.040;2024-01-30T06:49:27;20.55;;;9.52;;
63350;SDS011;74263;51.058;17.040;2024-01-30T06:54:29;18.37;;;8.63;;
63350;SDS011;74263;51.058;17.040;2024-01-30T06:59:31;17.48;;;8.43;;
63350;SDS011;74263;51.058;17.040;2024-01-30T07:04:32;15.50;;;8.03;;
63350;SDS011;74263;51.058;17.040;2024-01-30T07:09:34;20.57;;;9.20;;
63350;SDS011;74263;51.058;17.040;2024-01-30T07:14:36;26.02;;;10.52;;
63350;SDS011;74263;51.058;17.040;2024-01-30T07:19:38;31.00;;;12.53;;
63350;SDS011;74263;51.058;17.040;2024-01-30T07:24:43;24.77;;;10.60;;
63350;SDS011;74263;51.058;17.040;2024-01-30T07:29:45;28.45;;;12.43;;
63350;SDS011;74263;51.058;17.040;2024-01-30T07:34:46;37.08;;;15.07;;
63350;SDS011;74263;51.058;17.040;2024-01-30T07:40:06;27.35;;;11.13;;
63350;SDS011;74263;51.058;17.040;2024-01-30T07:45:10;23.50;;;10.57;;
63350;SDS011;74263;51.058;17.040;2024-01-30T07:50:12;22.50;;;8.80;;
63350;SDS011;74263;51.058;17.040;2024-01-30T07:55:13;18.95;;;8.45;;
63350;SDS011;74263;51.058;17.040;2024-01-30T08:00:15;15.32;;;4.97;;
63350;SDS011;74263;51.058;17.040;2024-01-30T08:05:17;16.23;;;6.15;;
63350;SDS011;74263;51.058;17.040;2024-01-30T08:10:19;22.70;;;8.17;;
63350;SDS011;74263;51.058;17.040;2024-01-30T08:20:23;11.68;;;4.57;;
63350;SDS011;74263;51.058;17.040;2024-01-30T08:25:25;13.88;;;7.18;;
63350;SDS011;74263;51.058;17.040;2024-01-30T08:30:27;7.67;;;4.10;;
63350;SDS011;74263;51.058;17.040;2024-01-30T08:35:29;10.20;;;3.92;;
63350;SDS011;74263;51.058;17.040;2024-01-30T08:40:31;15.83;;;6.77;;
63350;SDS011;74263;51.058;17.040;2024-01-30T08:45:33;19.43;;;7.57;;
63350;SDS011;74263;51.058;17.040;2024-01-30T08:50:34;13.85;;;6.90;;
63350;SDS011;74263;51.058;17.040;2024-01-30T08:55:36;18.50;;;6.60;;
63350;SDS011;74263;51.058;17.040;2024-01-30T09:00:38;15.82;;;5.97;;
63350;SDS011;74263;51.058;17.040;2024-01-30T09:05:40;16.10;;;5.73;;
63350;SDS011;74263;51.058;17.040;2024-01-30T09:10:42;11.23;;;5.50;;
63350;SDS011;74263;51.058;17.040;2024-01-30T09:15:43;11.87;;;5.87;;
63350;SDS011;74263;51.058;17.040;2024-01-30T09:20:45;15.55;;;6.63;;
63350;SDS011;74263;51.058;17.040;2024-01-30T09:25:47;13.75;;;6.25;;
63350;SDS011;74263;51.058;17.040;2024-01-30T09:30:49;11.60;;;5.63;;
63350;SDS011;74263;51.058;17.040;2024-01-30T09:35:50;16.35;;;5.65;;
63350;SDS011;74263;51.058;17.040;2024-01-30T09:40:54;13.30;;;5.60;;
63350;SDS011;74263;51.058;17.040;2024-01-30T09:45:55;10.55;;;5.38;;
63350;SDS011;74263;51.058;17.040;2024-01-30T09:50:59;9.18;;;4.82;;
63350;SDS011;74263;51.058;17.040;2024-01-30T09:56:01;12.27;;;5.53;;
63350;SDS011;74263;51.058;17.040;2024-01-30T10:01:04;10.90;;;5.53;;
63350;SDS011;74263;51.058;17.040;2024-01-30T10:06:06;14.77;;;5.63;;
63350;SDS011;74263;51.058;17.040;2024-01-30T10:11:08;8.77;;;4.63;;
63350;SDS011;74263;51.058;17.040;2024-01-30T10:16:13;12.50;;;5.20;;
63350;SDS011;74263;51.058;17.040;2024-01-30T10:21:15;11.27;;;5.35;;
63350;SDS011;74263;51.058;17.040;2024-01-30T10:26:16;9.30;;;4.10;;
63350;SDS011;74263;51.058;17.040;2024-01-30T10:31:18;10.77;;;4.00;;
63350;SDS011;74263;51.058;17.040;2024-01-30T10:36:20;7.55;;;4.97;;
63350;SDS011;74263;51.058;17.040;2024-01-30T10:41:25;10.10;;;5.05;;
63350;SDS011;74263;51.058;17.040;2024-01-30T10:46:30;15.93;;;5.40;;
63350;SDS011;74263;51.058;17.040;2024-01-30T10:51:33;10.77;;;5.38;;
63350;SDS011;74263;51.058;17.040;2024-01-30T10:56:36;13.52;;;5.78;;
63350;SDS011;74263;51.058;17.040;2024-01-30T11:01:37;11.10;;;5.50;;
63350;SDS011;74263;51.058;17.040;2024-01-30T11:06:43;15.07;;;6.00;;
63350;SDS011;74263;51.058;17.040;2024-01-30T11:11:52;9.30;;;5.32;;
63350;SDS011;74263;51.058;17.040;2024-01-30T11:16:57;11.77;;;5.93;;
63350;SDS011;74263;51.058;17.040;2024-01-30T11:21:59;9.63;;;4.07;;
63350;SDS011;74263;51.058;17.040;2024-01-30T11:27:01;10.40;;;5.93;;
63350;SDS011;74263;51.058;17.040;2024-01-30T11:32:04;10.27;;;4.28;;
63350;SDS011;74263;51.058;17.040;2024-01-30T11:37:09;8.30;;;4.47;;
63350;SDS011;74263;51.058;17.040;2024-01-30T11:42:11;8.27;;;4.97;;
63350;SDS011;74263;51.058;17.040;2024-01-30T11:47:14;5.88;;;3.80;;
63350;SDS011;74263;51.058;17.040;2024-01-30T11:52:16;10.50;;;5.07;;
63350;SDS011;74263;51.058;17.040;2024-01-30T11:57:20;10.77;;;5.10;;
63350;SDS011;74263;51.058;17.040;2024-01-30T12:02:22;10.70;;;5.13;;
63350;SDS011;74263;51.058;17.040;2024-01-30T12:07:24;9.80;;;5.75;;
63350;SDS011;74263;51.058;17.040;2024-01-30T12:12:26;11.63;;;4.80;;
63350;SDS011;74263;51.058;17.040;2024-01-30T12:17:30;8.70;;;5.50;;
63350;SDS011;74263;51.058;17.040;2024-01-30T12:22:38;13.40;;;4.60;;
63350;SDS011;74263;51.058;17.040;2024-01-30T12:27:44;15.73;;;5.43;;
63350;SDS011;74263;51.058;17.040;2024-01-30T12:32:47;10.82;;;6.40;;
63350;SDS011;74263;51.058;17.040;2024-01-30T12:37:49;10.98;;;5.47;;
63350;SDS011;74263;51.058;17.040;2024-01-30T12:42:51;11.05;;;6.22;;
63350;SDS011;74263;51.058;17.040;2024-01-30T12:47:54;8.77;;;4.05;;
63350;SDS011;74263;51.058;17.040;2024-01-30T12:52:56;10.15;;;5.82;;
63350;SDS011;74263;51.058;17.040;2024-01-30T12:57:58;12.35;;;6.07;;
63350;SDS011;74263;51.058;17.040;2024-01-30T13:02:59;12.00;;;5.35;;
63350;SDS011;74263;51.058;17.040;2024-01-30T13:08:01;10.70;;;5.13;;
63350;SDS011;74263;51.058;17.040;2024-01-30T13:13:03;9.33;;;5.53;;
63350;SDS011;74263;51.058;17.040;2024-01-30T13:18:06;11.07;;;6.45;;
63350;SDS011;74263;51.058;17.040;2024-01-30T13:23:08;14.17;;;6.57;;
63350;SDS011;74263;51.058;17.040;2024-01-30T13:28:10;8.97;;;5.97;;
63350;SDS011;74263;51.058;17.040;2024-01-30T13:33:12;11.20;;;5.78;;
63350;SDS011;74263;51.058;17.040;2024-01-30T13:43:16;10.00;;;6.22;;
63350;SDS011;74263;51.058;17.040;2024-01-30T13:48:19;11.60;;;5.90;;
63350;SDS011;74263;51.058;17.040;2024-01-30T13:53:20;10.50;;;6.13;;
63350;SDS011;74263;51.058;17.040;2024-01-30T13:58:22;11.65;;;7.05;;
63350;SDS011;74263;51.058;17.040;2024-01-30T14:03:24;14.27;;;7.10;;
63350;SDS011;74263;51.058;17.040;2024-01-30T14:08:26;11.52;;;7.35;;
63350;SDS011;74263;51.058;17.040;2024-01-30T14:13:28;12.40;;;6.67;;
63350;SDS011;74263;51.058;17.040;2024-01-30T14:18:29;11.38;;;6.85;;
63350;SDS011;74263;51.058;17.040;2024-01-30T14:23:32;12.30;;;6.10;;
63350;SDS011;74263;51.058;17.040;2024-01-30T14:28:34;11.50;;;6.97;;
63350;SDS011;74263;51.058;17.040;2024-01-30T14:33:36;15.87;;;7.43;;
63350;SDS011;74263;51.058;17.040;2024-01-30T14:38:41;13.90;;;7.57;;
63350;SDS011;74263;51.058;17.040;2024-01-30T14:43:45;13.70;;;7.43;;
63350;SDS011;74263;51.058;17.040;2024-01-30T14:48:48;17.70;;;7.85;;
63350;SDS011;74263;51.058;17.040;2024-01-30T14:53:50;15.37;;;8.07;;
63350;SDS011;74263;51.058;17.040;2024-01-30T14:58:52;14.93;;;8.40;;
63350;SDS011;74263;51.058;17.040;2024-01-30T15:08:56;14.40;;;8.25;;
63350;SDS011;74263;51.058;17.040;2024-01-30T15:13:59;18.00;;;8.07;;
63350;SDS011;74263;51.058;17.040;2024-01-30T15:19:00;25.48;;;8.20;;
63350;SDS011;74263;51.058;17.040;2024-01-30T15:24:03;17.77;;;9.43;;
63350;SDS011;74263;51.058;17.040;2024-01-30T15:29:04;21.40;;;9.63;;
63350;SDS011;74263;51.058;17.040;2024-01-30T15:34:06;14.43;;;8.48;;
63350;SDS011;74263;51.058;17.040;2024-01-30T15:39:08;19.25;;;9.73;;
63350;SDS011;74263;51.058;17.040;2024-01-30T15:44:11;20.48;;;9.52;;
63350;SDS011;74263;51.058;17.040;2024-01-30T15:49:14;24.30;;;11.77;;
63350;SDS011;74263;51.058;17.040;2024-01-30T15:54:16;26.13;;;11.95;;
63350;SDS011;74263;51.058;17.040;2024-01-30T15:59:17;12.43;;;7.28;;
63350;SDS011;74263;51.058;17.040;2024-01-30T16:04:19;21.70;;;10.65;;
63350;SDS011;74263;51.058;17.040;2024-01-30T16:09:24;18.97;;;10.07;;
63350;SDS011;74263;51.058;17.040;2024-01-30T16:14:26;24.58;;;11.38;;
63350;SDS011;74263;51.058;17.040;2024-01-30T16:19:27;23.30;;;11.50;;
63350;SDS011;74263;51.058;17.040;2024-01-30T16:24:29;28.07;;;12.73;;
63350;SDS011;74263;51.058;17.040;2024-01-30T16:29:31;21.83;;;11.70;;
63350;SDS011;74263;51.058;17.040;2024-01-30T16:34:36;19.75;;;9.55;;
63350;SDS011;74263;51.058;17.040;2024-01-30T16:39:38;25.70;;;11.93;;
63350;SDS011;74263;51.058;17.040;2024-01-30T16:44:40;27.98;;;13.40;;
63350;SDS011;74263;51.058;17.040;2024-01-30T16:49:41;31.15;;;14.85;;
63350;SDS011;74263;51.058;17.040;2024-01-30T16:54:43;30.77;;;14.17;;
63350;SDS011;74263;51.058;17.040;2024-01-30T16:59:45;35.33;;;13.63;;
63350;SDS011;74263;51.058;17.040;2024-01-30T17:04:47;23.13;;;13.13;;
63350;SDS011;74263;51.058;17.040;2024-01-30T17:09:49;28.70;;;15.17;;
63350;SDS011;74263;51.058;17.040;2024-01-30T17:14:51;23.27;;;14.05;;
63350;SDS011;74263;51.058;17.040;2024-01-30T17:19:52;31.02;;;14.27;;
63350;SDS011;74263;51.058;17.040;2024-01-30T17:24:55;38.70;;;15.98;;
63350;SDS011;74263;51.058;17.040;2024-01-30T17:29:56;32.78;;;16.95;;
63350;SDS011;74263;51.058;17.040;2024-01-30T17:34:58;38.70;;;16.60;;
63350;SDS011;74263;51.058;17.040;2024-01-30T17:40:00;32.85;;;17.15;;
63350;SDS011;74263;51.058;17.040;2024-01-30T17:45:02;37.33;;;17.70;;
63350;SDS011;74263;51.058;17.040;2024-01-30T17:50:04;36.50;;;16.90;;
63350;SDS011;74263;51.058;17.040;2024-01-30T17:55:06;35.40;;;16.25;;
63350;SDS011;74263;51.058;17.040;2024-01-30T18:00:08;27.83;;;13.90;;
63350;SDS011;74263;51.058;17.040;2024-01-30T18:05:12;26.23;;;13.63;;
63350;SDS011;74263;51.058;17.040;2024-01-30T18:10:14;34.17;;;15.02;;
63350;SDS011;74263;51.058;17.040;2024-01-30T18:15:16;27.92;;;15.50;;
63350;SDS011;74263;51.058;17.040;2024-01-30T18:20:18;34.45;;;16.92;;
63350;SDS011;74263;51.058;17.040;2024-01-30T18:25:20;29.38;;;15.57;;
63350;SDS011;74263;51.058;17.040;2024-01-30T18:30:22;35.03;;;16.20;;
63350;SDS011;74263;51.058;17.040;2024-01-30T18:35:23;31.90;;;14.63;;
63350;SDS011;74263;51.058;17.040;2024-01-30T18:40:25;27.97;;;16.23;;
63350;SDS011;74263;51.058;17.040;2024-01-30T18:45:27;31.33;;;15.88;;
63350;SDS011;74263;51.058;17.040;2024-01-30T18:50:29;35.53;;;16.75;;
63350;SDS011;74263;51.058;17.040;2024-01-30T18:55:31;35.10;;;16.55;;
63350;SDS011;74263;51.058;17.040;2024-01-30T19:00:33;37.67;;;17.75;;
63350;SDS011;74263;51.058;17.040;2024-01-30T19:05:35;32.65;;;16.20;;
63350;SDS011;74263;51.058;17.040;2024-01-30T19:10:37;29.00;;;16.57;;
63350;SDS011;74263;51.058;17.040;2024-01-30T19:15:44;33.80;;;16.00;;
63350;SDS011;74263;51.058;17.040;2024-01-30T19:20:46;29.05;;;15.88;;
63350;SDS011;74263;51.058;17.040;2024-01-30T19:25:47;34.17;;;16.25;;
63350;SDS011;74263;51.058;17.040;2024-01-30T19:30:50;36.50;;;16.23;;
63350;SDS011;74263;51.058;17.040;2024-01-30T19:35:51;33.05;;;15.48;;
63350;SDS011;74263;51.058;17.040;2024-01-30T19:40:53;33.92;;;16.92;;
63350;SDS011;74263;51.058;17.040;2024-01-30T19:45:55;36.55;;;15.40;;
63350;SDS011;74263;51.058;17.040;2024-01-30T19:50:57;33.15;;;15.73;;
63350;SDS011;74263;51.058;17.040;2024-01-30T19:55:59;35.13;;;16.73;;
63350;SDS011;74263;51.058;17.040;2024-01-30T20:01:01;30.55;;;14.98;;
63350;SDS011;74263;51.058;17.040;2024-01-30T20:06:06;31.13;;;15.85;;
63350;SDS011;74263;51.058;17.040;2024-01-30T20:11:13;30.10;;;14.65;;
63350;SDS011;74263;51.058;17.040;2024-01-30T20:16:15;28.10;;;15.00;;
63350;SDS011;74263;51.058;17.040;2024-01-30T20:21:17;31.40;;;16.67;;
63350;SDS011;74263;51.058;17.040;2024-01-30T20:26:19;32.80;;;15.43;;
63350;SDS011;74263;51.058;17.040;2024-01-30T20:31:21;39.85;;;17.52;;
63350;SDS011;74263;51.058;17.040;2024-01-30T20:36:23;31.00;;;16.43;;
63350;SDS011;74263;51.058;17.040;2024-01-30T20:41:24;35.88;;;17.10;;
63350;SDS011;74263;51.058;17.040;2024-01-30T20:46:26;44.45;;;19.13;;
63350;SDS011;74263;51.058;17.040;2024-01-30T20:51:28;40.00;;;19.15;;
63350;SDS011;74263;51.058;17.040;2024-01-30T20:56:41;45.50;;;20.30;;
63350;SDS011;74263;51.058;17.040;2024-01-30T21:01:44;31.25;;;16.02;;
63350;SDS011;74263;51.058;17.040;2024-01-30T21:06:50;36.85;;;16.50;;
63350;SDS011;74263;51.058;17.040;2024-01-30T21:12:16;38.03;;;16.20;;
63350;SDS011;74263;51.058;17.040;2024-01-30T21:17:18;34.72;;;15.27;;
63350;SDS011;74263;51.058;17.040;2024-01-30T21:22:19;27.77;;;13.93;;
63350;SDS011;74263;51.058;17.040;2024-01-30T21:27:21;32.15;;;15.30;;
63350;SDS011;74263;51.058;17.040;2024-01-30T21:32:23;31.77;;;17.30;;
63350;SDS011;74263;51.058;17.040;2024-01-30T21:37:25;36.60;;;18.23;;
63350;SDS011;74263;51.058;17.040;2024-01-30T21:42:26;38.60;;;18.55;;
63350;SDS011;74263;51.058;17.040;2024-01-30T21:47:28;36.42;;;15.88;;
63350;SDS011;74263;51.058;17.040;2024-01-30T21:52:30;36.03;;;17.63;;
63350;SDS011;74263;51.058;17.040;2024-01-30T21:57:32;39.47;;;18.65;;
63350;SDS011;74263;51.058;17.040;2024-01-30T22:02:33;40.70;;;19.02;;
63350;SDS011;74263;51.058;17.040;2024-01-30T22:07:35;50.13;;;20.30;;
63350;SDS011;74263;51.058;17.040;2024-01-30T22:12:38;50.78;;;22.15;;
63350;SDS011;74263;51.058;17.040;2024-01-30T22:17:41;56.00;;;24.10;;
63350;SDS011;74263;51.058;17.040;2024-01-30T22:22:58;59.55;;;24.90;;
63350;SDS011;74263;51.058;17.040;2024-01-30T22:28:03;41.30;;;19.45;;
63350;SDS011;74263;51.058;17.040;2024-01-30T22:33:05;41.97;;;21.30;;
63350;SDS011;74263;51.058;17.040;2024-01-30T22:38:12;45.05;;;19.27;;
63350;SDS011;74263;51.058;17.040;2024-01-30T22:43:17;38.13;;;20.05;;
63350;SDS011;74263;51.058;17.040;2024-01-30T22:48:27;62.25;;;24.45;;
63350;SDS011;74263;51.058;17.040;2024-01-30T22:53:30;83.15;;;35.83;;
63350;SDS011;74263;51.058;17.040;2024-01-30T22:58:32;73.50;;;27.15;;
63350;SDS011;74263;51.058;17.040;2024-01-30T23:03:34;55.47;;;24.33;;
63350;SDS011;74263;51.058;17.040;2024-01-30T23:08:36;57.70;;;26.50;;
63350;SDS011;74263;51.058;17.040;2024-01-30T23:13:38;52.47;;;25.55;;
63350;SDS011;74263;51.058;17.040;2024-01-30T23:18:40;60.22;;;25.30;;
63350;SDS011;74263;51.058;17.040;2024-01-30T23:23:42;58.38;;;26.30;;
63350;SDS011;74263;51.058;17.040;2024-01-30T23:28:44;52.55;;;23.48;;
63350;SDS011;74263;51.058;17.040;2024-01-30T23:33:47;47.10;;;22.58;;
63350;SDS011;74263;51.058;17.040;2024-01-30T23:38:49;48.40;;;22.42;;
63350;SDS011;74263;51.058;17.040;2024-01-30T23:43:50;50.80;;;22.83;;
63350;SDS011;74263;51.058;17.040;2024-01-30T23:48:52;49.70;;;22.88;;
63350;SDS011;74263;51.058;17.040;2024-01-30T23:53:54;46.72;;;23.42;;
63350;SDS011;74263;51.058;17.040;2024-01-30T23:58:55;38.92;;;19.58;;
